Time;durP1;ratioP1;P1;durP2;ratioP2;P2;SDS_P1;SDS_P2;PMS_P1;PMS_P2;Temp;Humidity;BMP_temperature;BMP_pressure;BME280_temperature;BME280_humidity;BME280_pressure;Samples;Min_cycle;Max_cycle;Signal;HPM_P1;HPM_P2
2023/12/17 00:02:03;;;;;;;9.10;4.50;;;10.00;99.90;;;;;;5080206;28;20063;-78
2023/12/17 00:04:29;;;;;;;7.07;4.15;;;10.10;99.90;;;;;;5096658;27;20378;-78
2023/12/17 00:06:54;;;;;;;7.80;4.30;;;10.10;99.90;;;;;;5102839;27;20036;-77
2023/12/17 00:09:20;;;;;;;6.88;4.15;;;10.00;99.90;;;;;;5098659;27;20044;-78
2023/12/17 00:11:47;;;;;;;10.57;4.35;;;10.10;99.90;;;;;;5082907;27;20092;-77
2023/12/17 00:14:13;;;;;;;10.88;4.32;;;10.10;99.90;;;;;;5097605;27;20118;-78
2023/12/17 00:16:39;;;;;;;10.35;4.32;;;10.10;99.90;;;;;;5109870;27;20158;-77
2023/12/17 00:19:04;;;;;;;;;;;10.10;99.90;;;;;;5116464;27;20035;-76
2023/12/17 00:21:30;;;;;;;7.72;3.80;;;10.20;99.90;;;;;;5100946;27;19923;-77
2023/12/17 00:23:56;;;;;;;7.15;3.70;;;10.10;99.90;;;;;;5109968;27;20043;-76
2023/12/17 00:26:22;;;;;;;7.72;4.10;;;10.10;99.90;;;;;;5113823;27;20401;-77
2023/12/17 00:28:47;;;;;;;8.52;4.43;;;10.10;99.90;;;;;;5116840;27;20031;-77
2023/12/17 00:31:13;;;;;;;7.65;4.03;;;10.10;99.90;;;;;;5096642;27;20082;-77
2023/12/17 00:33:38;;;;;;;9.48;4.03;;;10.10;99.90;;;;;;5101924;28;20402;-78
2023/12/17 00:36:04;;;;;;;6.38;3.83;;;10.10;99.90;;;;;;5091116;27;20043;-78
2023/12/17 00:38:30;;;;;;;8.02;4.13;;;10.20;99.90;;;;;;5114276;27;20052;-77
2023/12/17 00:40:56;;;;;;;9.73;4.40;;;10.10;99.90;;;;;;5102057;27;20050;-77
2023/12/17 00:43:21;;;;;;;9.93;4.20;;;10.20;99.90;;;;;;5120345;27;20036;-77
2023/12/17 00:45:47;;;;;;;7.95;4.10;;;10.10;99.90;;;;;;5117191;27;20047;-77
2023/12/17 00:48:13;;;;;;;5.90;3.95;;;10.10;99.90;;;;;;5094780;27;20076;-77
2023/12/17 00:50:38;;;;;;;9.30;3.90;;;10.20;99.90;;;;;;5112484;27;20542;-77
2023/12/17 00:53:04;;;;;;;9.00;4.18;;;10.20;99.90;;;;;;5093261;28;20112;-77
2023/12/17 00:55:30;;;;;;;8.50;4.18;;;10.10;99.90;;;;;;5114308;27;20043;-77
2023/12/17 00:57:56;;;;;;;11.70;4.45;;;10.10;99.90;;;;;;5111357;27;20163;-77
2023/12/17 01:00:22;;;;;;;10.75;4.43;;;10.20;99.90;;;;;;5099981;28;20035;-76
2023/12/17 01:02:48;;;;;;;9.70;4.28;;;10.10;99.90;;;;;;5094572;27;20100;-77
2023/12/17 01:05:14;;;;;;;5.57;3.63;;;10.20;99.90;;;;;;5104556;27;20031;-77
2023/12/17 01:07:39;;;;;;;10.70;5.00;;;10.10;99.90;;;;;;5108444;27;20192;-76
2023/12/17 01:10:05;;;;;;;12.32;4.75;;;10.20;99.90;;;;;;5120927;27;20121;-77
2023/12/17 01:12:31;;;;;;;10.85;4.65;;;10.10;99.90;;;;;;5099119;28;20046;-77
2023/12/17 01:14:57;;;;;;;12.50;4.28;;;10.10;99.90;;;;;;5115930;27;20035;-77
2023/12/17 01:17:22;;;;;;;9.10;4.03;;;10.10;99.90;;;;;;5099532;28;20039;-77
2023/12/17 01:19:48;;;;;;;7.57;3.80;;;10.10;99.90;;;;;;5113257;27;20074;-77
2023/12/17 01:22:14;;;;;;;7.00;3.80;;;10.10;99.90;;;;;;5116404;27;20096;-77
2023/12/17 01:24:41;;;;;;;8.45;3.75;;;10.10;99.90;;;;;;5106772;27;20514;-78
2023/12/17 01:27:07;;;;;;;8.90;3.95;;;10.10;99.90;;;;;;5120238;27;20036;-77
2023/12/17 01:29:33;;;;;;;8.93;4.20;;;10.10;99.90;;;;;;5107764;27;20032;-77
2023/12/17 01:31:59;;;;;;;8.07;4.38;;;10.20;99.90;;;;;;5108579;27;20043;-77
2023/12/17 01:34:25;;;;;;;7.53;3.67;;;10.20;99.90;;;;;;5123532;27;20035;-77
2023/12/17 01:36:51;;;;;;;9.98;3.78;;;10.20;99.90;;;;;;5069491;28;20141;-78
2023/12/17 01:39:17;;;;;;;10.27;4.60;;;10.20;99.90;;;;;;5110338;27;20180;-78
2023/12/17 01:41:44;;;;;;;7.72;3.60;;;10.20;99.90;;;;;;5097613;27;20105;-77
2023/12/17 01:44:11;;;;;;;9.25;4.30;;;10.20;99.90;;;;;;5119541;27;20763;-77
2023/12/17 01:46:39;;;;;;;10.07;4.13;;;10.20;99.90;;;;;;5120404;27;20039;-77
2023/12/17 01:49:05;;;;;;;8.90;4.07;;;10.20;99.90;;;;;;5124684;27;20073;-78
2023/12/17 01:51:31;;;;;;;8.80;3.80;;;10.20;99.90;;;;;;5096913;27;20027;-77
2023/12/17 01:53:59;;;;;;;9.52;3.90;;;10.20;99.90;;;;;;5094139;27;20446;-77
2023/12/17 01:56:25;;;;;;;6.18;3.78;;;10.20;99.90;;;;;;5112135;27;20123;-77
2023/12/17 01:58:51;;;;;;;7.30;3.85;;;10.20;99.90;;;;;;5112732;27;20150;-77
2023/12/17 02:01:17;;;;;;;9.77;3.90;;;10.20;99.90;;;;;;5116741;27;20104;-77
2023/12/17 02:03:43;;;;;;;7.50;3.33;;;10.20;99.90;;;;;;5100032;27;20046;-77
2023/12/17 02:06:09;;;;;;;6.78;3.70;;;10.20;99.90;;;;;;5100006;27;20038;-78
2023/12/17 02:08:36;;;;;;;8.75;3.72;;;10.20;99.90;;;;;;5076570;28;20123;-77
2023/12/17 02:11:02;;;;;;;8.70;3.80;;;10.20;99.90;;;;;;5108984;27;20046;-77
2023/12/17 02:13:27;;;;;;;8.38;3.90;;;10.20;99.90;;;;;;5093567;27;20044;-77
2023/12/17 02:15:53;;;;;;;10.27;3.80;;;10.20;99.90;;;;;;5096794;28;20402;-77
2023/12/17 02:18:19;;;;;;;6.15;3.20;;;10.20;99.90;;;;;;5119148;27;20517;-78
2023/12/17 02:20:45;;;;;;;7.80;3.75;;;10.20;99.90;;;;;;5121730;27;20047;-77
2023/12/17 02:23:11;;;;;;;8.75;3.97;;;10.20;99.90;;;;;;5078958;28;20483;-76
2023/12/17 02:25:37;;;;;;;7.75;3.60;;;10.30;99.90;;;;;;5110575;27;20535;-77
2023/12/17 02:28:03;;;;;;;5.90;3.30;;;10.30;99.90;;;;;;5117068;27;20047;-78
2023/12/17 02:30:28;;;;;;;6.72;3.80;;;10.30;99.90;;;;;;5116601;27;20491;-77
2023/12/17 02:32:54;;;;;;;8.68;3.72;;;10.20;99.90;;;;;;5111549;27;20046;-78
2023/12/17 02:35:21;;;;;;;7.93;4.00;;;10.20;99.90;;;;;;5095291;27;20062;-77
2023/12/17 02:37:50;;;;;;;9.98;3.78;;;10.20;99.90;;;;;;5110799;27;20083;-77
2023/12/17 02:40:16;;;;;;;7.88;3.67;;;10.20;99.90;;;;;;5112881;27;20039;-78
2023/12/17 02:42:42;;;;;;;8.18;4.03;;;10.20;99.90;;;;;;5096539;28;20054;-77
2023/12/17 02:45:08;;;;;;;8.10;3.78;;;10.20;99.90;;;;;;5112596;27;20505;-77
2023/12/17 02:47:34;;;;;;;;;;;10.20;99.90;;;;;;5111071;28;20039;-77
2023/12/17 02:50:00;;;;;;;10.30;3.90;;;10.20;99.90;;;;;;5108950;28;19920;-77
2023/12/17 02:52:26;;;;;;;7.30;3.65;;;10.10;99.90;;;;;;5108914;28;20054;-77
2023/12/17 02:54:52;;;;;;;9.13;3.83;;;10.20;99.90;;;;;;5111601;28;20054;-77
2023/12/17 02:57:17;;;;;;;11.77;3.97;;;10.20;99.90;;;;;;5101515;28;20115;-77
2023/12/17 02:59:43;;;;;;;7.78;3.70;;;10.10;99.90;;;;;;5115465;28;20123;-77
2023/12/17 03:02:09;;;;;;;7.13;3.70;;;10.10;99.90;;;;;;5092996;28;20051;-78
2023/12/17 03:04:34;;;;;;;6.72;3.20;;;10.10;99.90;;;;;;5117209;28;20039;-78
2023/12/17 03:07:00;;;;;;;9.15;3.40;;;10.10;99.90;;;;;;5096884;28;20031;-78
2023/12/17 03:09:26;;;;;;;10.35;3.90;;;10.10;99.90;;;;;;5092136;28;20122;-78
2023/12/17 03:11:51;;;;;;;9.23;3.85;;;10.10;99.90;;;;;;5116045;28;20084;-78
2023/12/17 03:14:17;;;;;;;11.95;3.97;;;10.10;99.90;;;;;;5122959;28;20690;-78
2023/12/17 03:16:43;;;;;;;10.05;3.70;;;10.10;99.90;;;;;;5105263;28;20069;-78
2023/12/17 03:19:09;;;;;;;6.45;3.40;;;10.10;99.90;;;;;;5114480;28;20560;-78
2023/12/17 03:21:35;;;;;;;8.32;3.72;;;10.10;99.90;;;;;;5101877;28;20075;-78
2023/12/17 03:24:00;;;;;;;6.55;3.38;;;10.10;99.90;;;;;;5082385;27;20049;-78
2023/12/17 03:26:26;;;;;;;10.18;3.83;;;10.10;99.90;;;;;;5101838;27;20081;-78
2023/12/17 03:28:52;;;;;;;8.10;3.58;;;10.10;99.90;;;;;;5104904;27;20032;-78
2023/12/17 03:31:17;;;;;;;10.05;3.90;;;10.10;99.90;;;;;;5108281;27;20037;-78
2023/12/17 03:33:44;;;;;;;7.50;3.35;;;10.10;99.90;;;;;;5124564;27;20051;-78
2023/12/17 03:36:15;;;;;;;7.20;3.83;;;10.10;99.90;;;;;;5123430;27;20394;-78
2023/12/17 03:38:44;;;;;;;8.45;3.45;;;10.10;99.90;;;;;;5124229;27;20063;-78
2023/12/17 03:41:24;;;;;;;7.28;3.53;;;10.10;99.90;;;;;;5099237;28;20098;-78
2023/12/17 03:43:52;;;;;;;9.80;3.83;;;10.10;99.90;;;;;;5118538;27;20491;-78
2023/12/17 03:46:21;;;;;;;11.30;4.40;;;10.10;99.90;;;;;;5098425;27;20031;-77
2023/12/17 03:48:47;;;;;;;8.20;3.25;;;10.10;99.90;;;;;;5117293;27;20031;-78
2023/12/17 03:51:13;;;;;;;7.93;3.75;;;10.10;99.90;;;;;;5125083;27;20034;-78
2023/12/17 03:53:39;;;;;;;11.98;3.70;;;10.10;99.90;;;;;;5121560;27;20142;-78
2023/12/17 03:56:09;;;;;;;9.73;4.55;;;10.10;99.90;;;;;;5116069;27;20134;-78
2023/12/17 03:58:36;;;;;;;5.55;3.20;;;10.10;99.90;;;;;;5103371;27;20096;-78
2023/12/17 04:01:02;;;;;;;10.35;4.07;;;10.10;99.90;;;;;;5121353;27;20080;-78
2023/12/17 04:03:28;;;;;;;7.85;3.75;;;10.10;99.90;;;;;;5116221;27;20483;-78
2023/12/17 04:05:54;;;;;;;8.77;4.20;;;10.10;99.90;;;;;;5101248;27;20115;-78
2023/12/17 04:08:20;;;;;;;6.72;3.95;;;10.20;99.90;;;;;;5113263;27;20043;-78
2023/12/17 04:10:46;;;;;;;11.20;3.97;;;10.10;99.90;;;;;;5124187;27;20050;-78
2023/12/17 04:13:11;;;;;;;10.77;4.05;;;10.10;99.90;;;;;;5094906;28;20486;-78
2023/12/17 04:15:37;;;;;;;9.75;4.32;;;10.10;99.90;;;;;;5119534;27;20444;-78
2023/12/17 04:18:03;;;;;;;10.95;3.88;;;10.10;99.90;;;;;;5114584;27;20042;-78
2023/12/17 04:20:28;;;;;;;7.93;3.67;;;10.10;99.90;;;;;;5103104;27;20382;-78
2023/12/17 04:22:54;;;;;;;9.00;4.30;;;10.10;99.90;;;;;;5099154;28;20047;-78
2023/12/17 04:25:20;;;;;;;9.65;4.35;;;10.10;99.90;;;;;;5099704;27;20099;-77
2023/12/17 04:27:46;;;;;;;10.68;4.82;;;10.10;99.90;;;;;;5076792;28;20403;-78
2023/12/17 04:30:11;;;;;;;12.07;4.38;;;10.00;99.90;;;;;;5081705;27;20104;-78
2023/12/17 04:32:37;;;;;;;6.82;4.20;;;10.10;99.90;;;;;;5114704;27;20036;-78
2023/12/17 04:35:03;;;;;;;9.07;4.15;;;10.00;99.90;;;;;;5097243;27;20664;-78
2023/12/17 04:37:29;;;;;;;7.15;4.30;;;10.00;99.90;;;;;;5100062;27;20486;-78
2023/12/17 04:39:55;;;;;;;13.32;4.30;;;10.00;99.90;;;;;;5120414;27;20830;-78
2023/12/17 04:42:22;;;;;;;9.98;4.68;;;10.00;99.90;;;;;;5121157;27;20458;-78
2023/12/17 04:44:47;;;;;;;10.23;4.40;;;10.00;99.90;;;;;;5117205;27;20096;-78
2023/12/17 04:47:13;;;;;;;7.68;4.20;;;10.00;99.90;;;;;;5098151;28;20407;-78
2023/12/17 04:49:40;;;;;;;10.10;5.18;;;10.00;99.90;;;;;;5101490;27;20066;-78
2023/12/17 04:52:06;;;;;;;10.02;4.60;;;10.00;99.90;;;;;;5117848;27;20046;-78
2023/12/17 04:54:32;;;;;;;11.73;4.97;;;10.00;99.90;;;;;;5127745;27;20042;-78
2023/12/17 04:56:57;;;;;;;11.10;5.10;;;10.00;99.90;;;;;;5106531;28;20040;-78
2023/12/17 04:59:25;;;;;;;11.18;5.38;;;10.00;99.90;;;;;;5100698;27;20074;-78
2023/12/17 05:01:51;;;;;;;11.52;5.03;;;10.00;99.90;;;;;;5121315;27;20047;-78
2023/12/17 05:04:16;;;;;;;10.75;5.13;;;10.00;99.90;;;;;;5102968;27;20390;-78
2023/12/17 05:06:42;;;;;;;13.45;5.57;;;10.00;99.90;;;;;;5122966;27;20047;-78
2023/12/17 05:09:08;;;;;;;13.90;6.22;;;10.00;99.90;;;;;;5112734;27;20043;-77
2023/12/17 05:11:35;;;;;;;12.32;5.45;;;10.00;99.90;;;;;;5125168;27;20035;-78
2023/12/17 05:14:00;;;;;;;11.55;5.95;;;10.00;99.90;;;;;;5125863;27;20146;-78
2023/12/17 05:16:26;;;;;;;10.73;4.70;;;9.90;99.90;;;;;;5064855;27;20046;-78
2023/12/17 05:18:52;;;;;;;12.40;5.75;;;9.90;99.90;;;;;;5097178;28;20100;-78
2023/12/17 05:21:17;;;;;;;9.25;4.45;;;9.90;99.90;;;;;;5113428;27;20546;-78
2023/12/17 05:23:43;;;;;;;12.43;5.43;;;9.90;99.90;;;;;;5120468;27;20036;-78
2023/12/17 05:26:09;;;;;;;9.20;4.70;;;9.90;99.90;;;;;;5099042;27;20143;-78
2023/12/17 05:28:37;;;;;;;9.38;4.82;;;9.90;99.90;;;;;;5117516;27;20035;-78
2023/12/17 05:31:03;;;;;;;8.73;5.18;;;9.90;99.90;;;;;;5122550;27;20035;-78
2023/12/17 05:33:29;;;;;;;12.20;5.55;;;9.90;99.90;;;;;;5110788;27;20494;-78
2023/12/17 05:35:55;;;;;;;9.65;5.53;;;9.90;99.90;;;;;;5122352;27;20108;-78
2023/12/17 05:38:21;;;;;;;12.05;5.40;;;9.80;99.90;;;;;;5093563;27;20108;-78
2023/12/17 05:40:47;;;;;;;11.85;5.40;;;9.80;99.90;;;;;;5112480;27;20095;-77
2023/12/17 05:43:13;;;;;;;11.13;5.15;;;9.80;99.90;;;;;;5102383;27;20115;-78
2023/12/17 05:45:39;;;;;;;;;;;9.90;99.90;;;;;;5076429;28;20475;-78
2023/12/17 05:48:08;;;;;;;12.93;5.55;;;9.80;99.90;;;;;;5114971;27;20390;-78
2023/12/17 05:50:34;;;;;;;12.43;5.40;;;9.80;99.90;;;;;;5109955;27;20035;-78
2023/12/17 05:53:00;;;;;;;9.95;5.47;;;9.80;99.90;;;;;;5092504;28;20036;-78
2023/12/17 05:55:25;;;;;;;12.48;5.45;;;9.80;99.90;;;;;;5115988;27;20116;-78
2023/12/17 05:57:52;;;;;;;10.23;5.28;;;9.70;99.90;;;;;;5122874;27;20039;-78
2023/12/17 06:00:18;;;;;;;12.65;5.55;;;9.70;99.90;;;;;;5118183;27;20047;-78
2023/12/17 06:02:43;;;;;;;9.93;4.93;;;9.80;99.90;;;;;;5098310;27;20062;-77
2023/12/17 06:05:09;;;;;;;12.15;5.88;;;9.80;99.90;;;;;;5132532;27;20038;-77
2023/12/17 06:07:36;;;;;;;9.95;4.82;;;9.80;99.90;;;;;;5114287;27;20169;-78
2023/12/17 06:10:01;;;;;;;11.43;5.65;;;9.70;99.90;;;;;;5109958;27;20118;-78
2023/12/17 06:12:27;;;;;;;10.45;5.30;;;9.80;99.90;;;;;;5078163;27;20042;-78
2023/12/17 06:14:53;;;;;;;12.63;6.30;;;9.80;99.90;;;;;;5095706;28;20054;-78
2023/12/17 06:17:18;;;;;;;9.07;5.53;;;9.80;99.90;;;;;;5076709;27;20040;-78
2023/12/17 06:19:44;;;;;;;11.02;5.45;;;9.80;99.90;;;;;;5097904;27;20043;-78
2023/12/17 06:22:15;;;;;;;13.73;7.07;;;9.70;99.90;;;;;;5091530;28;20075;-78
2023/12/17 06:24:41;;;;;;;16.65;7.07;;;9.80;99.90;;;;;;5116271;27;20038;-78
2023/12/17 06:27:13;;;;;;;13.00;7.20;;;9.70;99.90;;;;;;5102611;28;20036;-78
2023/12/17 06:29:38;;;;;;;13.02;7.15;;;9.70;99.90;;;;;;5113047;27;20391;-78
2023/12/17 06:32:04;;;;;;;12.77;7.47;;;9.70;99.90;;;;;;5123071;27;20035;-78
2023/12/17 06:34:30;;;;;;;11.55;7.40;;;9.70;99.90;;;;;;5113419;27;20032;-78
2023/12/17 06:36:56;;;;;;;11.80;6.82;;;9.70;99.90;;;;;;5100262;28;20046;-78
2023/12/17 06:39:21;;;;;;;14.77;8.05;;;9.70;99.90;;;;;;5112159;27;20048;-78
2023/12/17 06:41:48;;;;;;;13.32;7.50;;;9.70;99.90;;;;;;5100934;27;20587;-78
2023/12/17 06:44:14;;;;;;;;;;;9.70;99.90;;;;;;5112543;27;20101;-77
2023/12/17 06:46:40;;;;;;;17.98;8.88;;;9.70;99.90;;;;;;5119858;27;19919;-77
2023/12/17 06:49:06;;;;;;;11.45;7.65;;;9.70;99.90;;;;;;5097176;28;20027;-78
2023/12/17 06:51:31;;;;;;;12.20;7.50;;;9.70;99.90;;;;;;5119626;27;20084;-76
2023/12/17 06:53:57;;;;;;;16.73;7.57;;;9.70;99.90;;;;;;5104483;28;20032;-76
2023/12/17 06:56:23;;;;;;;12.43;7.07;;;9.70;99.90;;;;;;5115641;28;20039;-76
2023/12/17 06:58:48;;;;;;;10.68;6.28;;;9.70;99.90;;;;;;5095059;28;20039;-77
2023/12/17 07:01:14;;;;;;;9.65;5.60;;;9.70;99.90;;;;;;5090395;28;20659;-76
2023/12/17 07:03:40;;;;;;;8.63;5.35;;;9.70;99.90;;;;;;5108611;28;20039;-76
2023/12/17 07:06:10;;;;;;;13.43;5.88;;;9.70;99.90;;;;;;5112281;28;20039;-76
2023/12/17 07:08:37;;;;;;;10.40;5.50;;;9.70;99.90;;;;;;5117895;28;20085;-76
2023/12/17 07:11:02;;;;;;;;;;;9.70;99.90;;;;;;5096819;28;20036;-76
2023/12/17 07:13:28;;;;;;;13.38;4.63;;;9.60;99.90;;;;;;5109311;28;19942;-76
2023/12/17 07:15:54;;;;;;;9.35;4.68;;;9.70;99.90;;;;;;5113658;28;20120;-76
2023/12/17 07:18:20;;;;;;;8.93;4.22;;;9.60;99.90;;;;;;5082347;28;20096;-77
2023/12/17 07:20:47;;;;;;;9.68;4.80;;;9.70;99.90;;;;;;5116427;28;20047;-76
2023/12/17 07:23:13;;;;;;;16.30;5.30;;;9.70;99.90;;;;;;5091332;28;20570;-78
2023/12/17 07:25:39;;;;;;;16.88;5.53;;;9.60;99.90;;;;;;5108336;28;20075;-76
2023/12/17 07:28:04;;;;;;;12.95;4.82;;;9.70;99.90;;;;;;5118337;28;20604;-77
2023/12/17 07:30:31;;;;;;;14.38;5.25;;;9.70;99.90;;;;;;5091174;28;20039;-77
2023/12/17 07:32:57;;;;;;;7.15;4.28;;;9.60;99.90;;;;;;5113982;28;20043;-77
2023/12/17 07:35:22;;;;;;;8.90;5.22;;;9.60;99.90;;;;;;5111117;28;20398;-77
2023/12/17 07:37:49;;;;;;;10.13;5.10;;;9.60;99.90;;;;;;5107460;28;20043;-77
2023/12/17 07:40:14;;;;;;;17.73;6.28;;;9.60;99.90;;;;;;5105822;28;20051;-78
2023/12/17 07:42:41;;;;;;;11.75;5.55;;;9.70;99.90;;;;;;5094386;28;20107;-77
2023/12/17 07:45:08;;;;;;;17.65;6.72;;;9.70;99.90;;;;;;5109671;28;20047;-77
2023/12/17 07:47:33;;;;;;;13.98;5.75;;;9.60;99.90;;;;;;5105600;28;20497;-77
2023/12/17 07:49:59;;;;;;;16.65;5.68;;;9.60;99.90;;;;;;5088090;28;20043;-76
2023/12/17 07:52:25;;;;;;;12.18;6.10;;;9.60;99.90;;;;;;5114751;28;20082;-77
2023/12/17 07:54:52;;;;;;;14.77;5.47;;;9.60;99.90;;;;;;5113133;28;20447;-77
2023/12/17 07:57:19;;;;;;;13.18;6.40;;;9.60;99.90;;;;;;5112826;28;20163;-74
2023/12/17 07:59:46;;;;;;;;;;;9.60;99.90;;;;;;5090064;28;20490;-76
2023/12/17 08:02:14;;;;;;;11.98;6.70;;;9.60;99.90;;;;;;5109059;28;19924;-77
2023/12/17 08:04:41;;;;;;;14.98;6.63;;;9.50;99.90;;;;;;5093701;28;20490;-77
2023/12/17 08:07:09;;;;;;;15.40;6.57;;;9.50;99.90;;;;;;5101219;28;20050;-79
2023/12/17 08:09:35;;;;;;;14.93;5.68;;;9.50;99.90;;;;;;5112721;27;20533;-77
2023/12/17 08:12:02;;;;;;;16.02;6.57;;;9.50;99.90;;;;;;5120498;27;20063;-78
2023/12/17 08:14:28;;;;;;;10.65;6.22;;;9.50;99.90;;;;;;5099461;27;20035;-79
2023/12/17 08:16:54;;;;;;;;;;;9.50;99.90;;;;;;5104934;27;20039;-78
2023/12/17 08:19:19;;;;;;;15.52;5.60;;;9.50;99.90;;;;;;5121419;27;19926;-82
2023/12/17 08:21:45;;;;;;;16.02;7.07;;;9.50;99.90;;;;;;5097030;28;20035;-78
2023/12/17 08:24:11;;;;;;;14.63;5.65;;;9.50;99.90;;;;;;5123639;27;20479;-79
2023/12/17 08:26:37;;;;;;;16.25;5.70;;;9.50;99.90;;;;;;5099866;27;20027;-80
2023/12/17 08:29:03;;;;;;;13.27;6.18;;;9.50;99.90;;;;;;5115364;27;20032;-79
2023/12/17 08:31:28;;;;;;;9.23;5.32;;;9.40;99.90;;;;;;5116714;27;20032;-79
2023/12/17 08:33:54;;;;;;;10.60;5.97;;;9.40;99.90;;;;;;5098925;27;20047;-80
2023/12/17 08:36:22;;;;;;;17.73;6.63;;;9.40;99.90;;;;;;5094095;27;20102;-80
2023/12/17 08:38:48;;;;;;;15.32;7.88;;;9.50;99.90;;;;;;5102345;28;20170;-79
2023/12/17 08:41:14;;;;;;;12.13;7.00;;;9.40;99.90;;;;;;5108212;27;20127;-79
2023/12/17 08:43:39;;;;;;;14.85;7.57;;;9.40;99.90;;;;;;5109672;27;20126;-80
2023/12/17 08:46:06;;;;;;;13.48;8.63;;;9.40;99.90;;;;;;5113338;27;20035;-79
2023/12/17 08:48:31;;;;;;;18.65;9.50;;;9.40;99.90;;;;;;5108358;27;20131;-79
2023/12/17 08:50:57;;;;;;;15.50;9.00;;;9.50;99.90;;;;;;5125028;27;20138;-78
2023/12/17 08:53:26;;;;;;;18.15;9.88;;;9.50;99.90;;;;;;5119001;27;20479;-80
2023/12/17 08:55:52;;;;;;;25.67;10.45;;;9.50;99.90;;;;;;5124569;27;20495;-79
2023/12/17 08:58:17;;;;;;;22.48;10.80;;;9.50;99.90;;;;;;5118344;27;20039;-79
2023/12/17 09:00:43;;;;;;;22.05;11.30;;;9.50;99.90;;;;;;5103263;27;20051;-79
2023/12/17 09:03:09;;;;;;;24.58;12.10;;;9.50;99.90;;;;;;5093756;28;20472;-78
2023/12/17 09:05:37;;;;;;;20.75;11.18;;;9.50;99.90;;;;;;5113862;27;20040;-79
2023/12/17 09:08:03;;;;;;;19.75;11.57;;;9.50;99.90;;;;;;5093851;28;20035;-78
2023/12/17 09:10:29;;;;;;;20.48;11.25;;;9.50;99.90;;;;;;5096776;27;20039;-79
2023/12/17 09:12:54;;;;;;;22.80;11.73;;;9.60;99.90;;;;;;5105964;27;20071;-78
2023/12/17 09:15:21;;;;;;;18.75;11.10;;;9.60;99.90;;;;;;5114411;27;20122;-79
2023/12/17 09:17:46;;;;;;;;;;;9.60;99.90;;;;;;5113317;27;20110;-79
2023/12/17 09:20:13;;;;;;;24.63;12.73;;;9.60;99.90;;;;;;5098631;28;19995;-78
2023/12/17 09:22:40;;;;;;;22.92;13.32;;;9.60;99.90;;;;;;5094564;27;20044;-79
2023/12/17 09:25:06;;;;;;;21.00;12.55;;;9.60;99.90;;;;;;5097210;27;20050;-79
2023/12/17 09:27:32;;;;;;;24.33;12.40;;;9.60;99.90;;;;;;5095631;28;20043;-79
2023/12/17 09:29:57;;;;;;;28.25;12.75;;;9.70;99.90;;;;;;5118344;27;20126;-80
2023/12/17 09:32:23;;;;;;;26.35;13.50;;;9.70;99.90;;;;;;5070803;28;20722;-80
2023/12/17 09:34:49;;;;;;;23.00;12.52;;;9.70;99.90;;;;;;5081756;28;20028;-78
2023/12/17 09:37:14;;;;;;;23.33;11.63;;;9.70;99.90;;;;;;5093985;27;20043;-78
2023/12/17 09:39:40;;;;;;;27.10;13.10;;;9.70;99.90;;;;;;5070736;27;20051;-77
2023/12/17 09:42:06;;;;;;;20.08;11.82;;;9.70;99.90;;;;;;5115716;27;20050;-77
2023/12/17 09:44:32;;;;;;;23.98;11.30;;;9.80;99.90;;;;;;5106967;27;21526;-78
2023/12/17 09:46:58;;;;;;;20.20;9.73;;;9.70;99.90;;;;;;5093989;27;20050;-78
2023/12/17 09:49:24;;;;;;;21.75;8.82;;;9.80;99.90;;;;;;5110145;27;20392;-78
2023/12/17 09:52:00;;;;;;;19.48;8.18;;;9.80;99.90;;;;;;5108880;27;20042;-79
2023/12/17 09:54:25;;;;;;;17.95;8.05;;;9.80;99.90;;;;;;5111867;27;20035;-79
2023/12/17 09:56:53;;;;;;;21.90;8.68;;;9.80;99.90;;;;;;5110523;27;20050;-79
2023/12/17 09:59:19;;;;;;;18.33;8.10;;;9.80;99.90;;;;;;5090943;27;20039;-78
2023/12/17 10:01:45;;;;;;;16.15;7.60;;;9.80;99.90;;;;;;5111611;27;20073;-79
2023/12/17 10:04:11;;;;;;;;;;;9.90;99.90;;;;;;5112169;27;20118;-79
2023/12/17 10:06:37;;;;;;;15.68;6.65;;;9.90;99.90;;;;;;5108330;27;20002;-79
2023/12/17 10:09:05;;;;;;;17.25;7.05;;;9.90;99.90;;;;;;5106760;27;20040;-79
2023/12/17 10:11:32;;;;;;;21.90;7.57;;;9.90;99.90;;;;;;5092917;28;20471;-78
2023/12/17 10:13:59;;;;;;;;;;;9.90;99.90;;;;;;5087237;28;20470;-79
2023/12/17 10:16:26;;;;;;;19.38;7.18;;;9.90;99.90;;;;;;5113809;27;19984;-79
2023/12/17 10:18:52;;;;;;;15.38;7.28;;;9.90;99.90;;;;;;5110275;27;20791;-79
2023/12/17 10:21:18;;;;;;;17.08;7.13;;;9.90;99.90;;;;;;5110336;27;20054;-82
2023/12/17 10:23:50;;;;;;;17.98;8.00;;;9.90;99.90;;;;;;5096164;27;20043;-80
2023/12/17 10:26:16;;;;;;;18.45;7.35;;;9.90;99.90;;;;;;5107312;27;20042;-80
2023/12/17 10:28:46;;;;;;;15.57;7.90;;;9.90;99.90;;;;;;5088084;28;20032;-80
2023/12/17 10:31:16;;;;;;;17.90;7.72;;;9.90;99.90;;;;;;5105487;27;20031;-81
2023/12/17 10:33:56;;;;;;;16.38;8.75;;;9.90;99.90;;;;;;5091529;27;20043;-80
2023/12/17 10:36:23;;;;;;;22.27;9.68;;;9.90;99.90;;;;;;5089284;28;20410;-80
2023/12/17 10:38:49;;;;;;;21.52;11.07;;;9.90;99.90;;;;;;5092120;28;20055;-80
2023/12/17 10:41:16;;;;;;;;;;;9.90;99.90;;;;;;5090161;28;20051;-79
2023/12/17 10:43:43;;;;;;;25.20;12.88;;;9.90;99.90;;;;;;5110860;27;20288;-79
2023/12/17 10:46:13;;;;;;;23.48;13.40;;;9.90;99.90;;;;;;5091064;28;20058;-79
2023/12/17 10:48:39;;;;;;;24.77;12.60;;;9.90;99.90;;;;;;5110534;28;20024;-80
2023/12/17 10:51:05;;;;;;;25.52;13.52;;;9.90;99.90;;;;;;5089772;28;20078;-79
2023/12/17 10:53:31;;;;;;;21.88;13.00;;;9.90;99.90;;;;;;5089532;28;20391;-79
2023/12/17 10:55:57;;;;;;;28.50;15.80;;;9.90;99.90;;;;;;5109863;28;20039;-78
2023/12/17 10:58:24;;;;;;;;;;;9.90;99.90;;;;;;5091260;28;20050;-78
2023/12/17 11:00:50;;;;;;;29.25;17.88;;;9.90;99.90;;;;;;5093378;28;20397;-80
2023/12/17 11:03:17;;;;;;;29.98;18.48;;;9.90;99.90;;;;;;5095423;28;20508;-80
2023/12/17 11:06:01;;;;;;;26.80;17.10;;;9.90;99.90;;;;;;5110171;28;20047;-79
2023/12/17 11:08:28;;;;;;;25.88;16.50;;;9.90;99.90;;;;;;5103236;28;20055;-80
2023/12/17 11:10:55;;;;;;;29.98;16.88;;;9.90;99.90;;;;;;5106376;28;20043;-80
2023/12/17 11:13:24;;;;;;;25.20;16.35;;;9.90;99.90;;;;;;5114988;28;20039;-80
2023/12/17 11:15:51;;;;;;;26.98;16.10;;;9.90;99.90;;;;;;5114927;28;20048;-80
2023/12/17 11:18:17;;;;;;;22.00;14.77;;;9.90;99.90;;;;;;5101764;28;21128;-79
2023/12/17 11:20:46;;;;;;;25.40;15.18;;;9.90;99.90;;;;;;5088089;28;20564;-78
2023/12/17 11:23:17;;;;;;;20.63;14.43;;;10.00;99.90;;;;;;5104794;28;20086;-75
2023/12/17 11:25:43;;;;;;;25.15;16.25;;;10.00;99.90;;;;;;5117818;28;20047;-79
2023/12/17 11:28:18;;;;;;;25.52;15.23;;;10.00;99.90;;;;;;5106350;28;20130;-79
2023/12/17 11:30:47;;;;;;;24.80;13.93;;;10.00;99.90;;;;;;5091090;28;20040;-80
2023/12/17 11:33:14;;;;;;;24.83;14.18;;;10.00;99.90;;;;;;5113942;28;20043;-80
2023/12/17 11:35:40;;;;;;;23.90;14.75;;;10.10;99.90;;;;;;5093413;28;20039;-80
2023/12/17 11:38:06;;;;;;;23.50;14.20;;;10.10;99.90;;;;;;5095882;28;20372;-80
2023/12/17 11:40:31;;;;;;;22.85;13.98;;;10.10;99.90;;;;;;5120590;28;20054;-80
2023/12/17 11:42:58;;;;;;;22.65;13.25;;;10.10;99.90;;;;;;5114678;28;20113;-79
2023/12/17 11:45:51;;;;;;;24.75;14.35;;;10.10;99.90;;;;;;5121415;27;20371;-78
2023/12/17 11:48:21;;;;;;;23.27;13.70;;;10.10;99.90;;;;;;5113922;27;20483;-79
2023/12/17 11:50:48;;;;;;;21.25;13.15;;;10.20;99.90;;;;;;5102532;27;20490;-79
2023/12/17 11:53:18;;;;;;;18.75;12.32;;;10.10;99.90;;;;;;5115551;27;20108;-80
2023/12/17 11:55:46;;;;;;;18.25;12.60;;;10.10;99.90;;;;;;5119587;27;20069;-77
2023/12/17 11:58:15;;;;;;;20.40;12.43;;;10.10;99.90;;;;;;5118362;27;20134;-80
2023/12/17 12:00:43;;;;;;;16.40;11.68;;;10.10;99.90;;;;;;5116306;27;20112;-79
2023/12/17 12:03:08;;;;;;;25.33;13.65;;;10.20;99.90;;;;;;5095913;27;20048;-79
2023/12/17 12:05:34;;;;;;;16.25;11.65;;;10.10;99.90;;;;;;5094415;28;20032;-79
2023/12/17 12:08:00;;;;;;;18.45;12.07;;;10.10;99.90;;;;;;5096018;27;20032;-78
2023/12/17 12:10:25;;;;;;;18.45;11.32;;;10.10;99.90;;;;;;5107597;27;21773;-79
2023/12/17 12:13:04;;;;;;;17.80;11.57;;;10.20;99.90;;;;;;5110515;27;20043;-78
2023/12/17 12:16:02;;;;;;;21.00;11.55;;;10.10;99.90;;;;;;5116548;27;20048;-79
2023/12/17 12:18:29;;;;;;;21.48;12.68;;;10.10;99.90;;;;;;5116649;27;20487;-79
2023/12/17 12:20:54;;;;;;;;;;;10.10;99.90;;;;;;5099011;27;20036;-78
2023/12/17 12:23:21;;;;;;;19.38;12.32;;;10.00;99.90;;;;;;5112072;27;19919;-79
2023/12/17 12:25:47;;;;;;;20.05;13.88;;;10.10;99.90;;;;;;5111853;27;20043;-80
2023/12/17 12:28:20;;;;;;;18.50;12.52;;;10.10;99.90;;;;;;5095552;27;20042;-79
2023/12/17 12:30:46;;;;;;;21.02;14.15;;;10.10;99.90;;;;;;5113790;27;20044;-78
2023/12/17 12:33:14;;;;;;;24.00;14.48;;;10.10;99.90;;;;;;5094801;27;20043;-78
2023/12/17 12:35:44;;;;;;;17.95;13.50;;;10.10;99.90;;;;;;5091942;28;20044;-78
2023/12/17 12:38:24;;;;;;;22.17;13.80;;;10.10;99.90;;;;;;5093100;27;20059;-78
2023/12/17 12:40:51;;;;;;;18.90;14.00;;;10.10;99.90;;;;;;5111890;27;20491;-78
2023/12/17 12:43:17;;;;;;;19.27;13.50;;;10.10;99.90;;;;;;5092776;28;20036;-78